createdAt,value
2023-05-05T00:00:15.641Z,14.13
2023-05-05T00:02:42.278Z,14.14
2023-05-05T00:05:08.984Z,14.11
2023-05-05T00:07:35.364Z,14.11
2023-05-05T00:10:01.939Z,14.04
2023-05-05T00:12:28.627Z,14.05
2023-05-05T00:14:55.069Z,14.06
2023-05-05T00:17:21.719Z,14.03
2023-05-05T00:19:48.101Z,14.04
2023-05-05T00:22:15.279Z,14.03
2023-05-05T00:24:41.646Z,14.02
2023-05-05T00:27:08.030Z,14.00
2023-05-05T00:29:34.427Z,13.96
2023-05-05T00:32:00.882Z,13.97
2023-05-05T00:34:27.270Z,13.97
2023-05-05T00:36:54.097Z,13.97
2023-05-05T00:39:20.566Z,13.95
2023-05-05T00:41:46.923Z,13.94
2023-05-05T00:44:13.308Z,13.93
2023-05-05T00:46:41.717Z,13.87
2023-05-05T00:49:08.363Z,13.88
2023-05-05T00:51:35.048Z,13.88
2023-05-05T00:54:01.702Z,13.88
2023-05-05T00:56:28.480Z,13.87
2023-05-05T00:58:55.066Z,13.89
2023-05-05T01:01:21.545Z,13.90
2023-05-05T01:03:48.059Z,13.89
2023-05-05T01:06:37.603Z,13.88
2023-05-05T01:09:17.141Z,13.87
2023-05-05T01:11:56.347Z,13.85
2023-05-05T01:14:36.794Z,13.83
2023-05-05T01:17:23.921Z,13.81
2023-05-05T01:23:06.243Z,13.82
2023-05-05T01:26:10.385Z,13.85
2023-05-05T01:29:23.762Z,13.85
2023-05-05T01:31:54.612Z,13.86
2023-05-05T01:34:26.258Z,13.87
2023-05-05T01:36:58.283Z,13.92
2023-05-05T01:39:30.411Z,13.96
2023-05-05T01:41:59.988Z,13.98
2023-05-05T01:44:28.273Z,14.00
2023-05-05T01:46:55.762Z,14.01
2023-05-05T01:49:22.801Z,14.01
2023-05-05T01:51:49.954Z,14.03
2023-05-05T01:54:18.685Z,14.06
2023-05-05T01:56:46.369Z,14.10
2023-05-05T01:59:13.520Z,14.11
2023-05-05T02:01:41.797Z,14.14
2023-05-05T02:04:12.905Z,14.15
2023-05-05T02:06:40.364Z,14.16
2023-05-05T02:09:08.503Z,14.17
2023-05-05T02:11:35.155Z,14.22
2023-05-05T02:14:02.290Z,14.24
2023-05-05T02:16:31.098Z,14.27
2023-05-05T02:19:01.347Z,14.34
2023-05-05T02:21:28.608Z,14.35
2023-05-05T02:23:55.639Z,14.37
2023-05-05T02:26:23.694Z,14.38
2023-05-05T02:29:12.047Z,14.38
2023-05-05T02:31:44.296Z,14.35
2023-05-05T02:34:13.187Z,14.32
2023-05-05T02:36:42.357Z,14.30
2023-05-05T02:39:26.144Z,14.31
2023-05-05T02:41:55.215Z,14.31
2023-05-05T02:44:24.674Z,14.28
2023-05-05T02:46:51.820Z,14.25
2023-05-05T02:49:18.298Z,14.20
2023-05-05T02:51:44.675Z,14.15
2023-05-05T02:54:11.283Z,14.09
2023-05-05T02:56:42.944Z,14.01
2023-05-05T02:59:29.636Z,13.98
2023-05-05T03:02:17.804Z,13.90
2023-05-05T03:04:51.682Z,13.82
2023-05-05T03:07:25.630Z,13.77
2023-05-05T03:10:03.359Z,13.73
2023-05-05T03:12:37.478Z,13.69
2023-05-05T03:15:08.653Z,13.63
2023-05-05T03:17:36.734Z,13.57
2023-05-05T03:20:06.925Z,13.51
2023-05-05T03:22:37.420Z,13.47
2023-05-05T03:25:05.035Z,13.41
2023-05-05T03:27:31.514Z,13.37
2023-05-05T03:29:57.965Z,13.32
2023-05-05T03:32:24.450Z,13.29
2023-05-05T03:34:50.861Z,13.28
2023-05-05T03:37:17.219Z,13.23
2023-05-05T03:39:43.600Z,13.20
2023-05-05T03:42:10.006Z,13.16
2023-05-05T03:44:36.545Z,13.13
2023-05-05T03:47:02.958Z,13.12
2023-05-05T03:49:29.353Z,13.10
2023-05-05T03:51:55.718Z,13.05
2023-05-05T03:54:22.145Z,13.04
2023-05-05T03:56:48.587Z,13.04
2023-05-05T03:59:14.951Z,13.03
2023-05-05T04:01:41.489Z,13.04
2023-05-05T04:04:09.433Z,13.05
2023-05-05T04:06:35.939Z,13.07
2023-05-05T04:09:02.728Z,13.07
2023-05-05T04:11:29.187Z,13.08
2023-05-05T04:13:55.569Z,13.08
2023-05-05T04:16:22.027Z,13.10
2023-05-05T04:18:48.491Z,13.09
2023-05-05T04:21:14.939Z,13.10
2023-05-05T04:23:41.321Z,13.06
2023-05-05T04:26:07.773Z,13.03
2023-05-05T04:28:34.279Z,13.04
2023-05-05T04:31:01.379Z,13.02
2023-05-05T04:33:27.804Z,13.00
2023-05-05T04:35:54.182Z,12.99
2023-05-05T04:38:21.109Z,13.02
2023-05-05T04:40:47.568Z,13.01
2023-05-05T04:43:13.982Z,13.02
2023-05-05T04:45:40.376Z,13.03
2023-05-05T04:48:06.939Z,13.02
2023-05-05T04:50:33.322Z,13.01
2023-05-05T04:52:59.791Z,12.99
2023-05-05T04:55:26.190Z,12.99
2023-05-05T04:57:52.550Z,13.02
2023-05-05T05:00:19.070Z,13.04
2023-05-05T05:02:45.556Z,13.04
2023-05-05T05:05:12.185Z,13.05
2023-05-05T05:07:38.609Z,13.04
2023-05-05T05:10:05.730Z,13.07
2023-05-05T05:12:32.331Z,13.08
2023-05-05T05:14:58.793Z,13.09
2023-05-05T05:17:26.763Z,13.13
2023-05-05T05:19:55.140Z,13.14
2023-05-05T05:22:21.791Z,13.17
2023-05-05T05:24:48.168Z,13.17
2023-05-05T05:27:14.540Z,13.20
2023-05-05T05:29:41.012Z,13.26
2023-05-05T05:32:07.469Z,13.29
2023-05-05T05:34:33.933Z,13.29
2023-05-05T05:37:00.398Z,13.33
2023-05-05T05:39:26.861Z,13.35
2023-05-05T05:41:53.277Z,13.40
2023-05-05T05:44:19.834Z,13.43
2023-05-05T05:46:46.339Z,13.47
2023-05-05T05:49:12.868Z,13.50
2023-05-05T05:51:39.348Z,13.55
2023-05-05T05:54:05.783Z,13.59
2023-05-05T05:56:32.236Z,13.65
2023-05-05T05:58:58.679Z,13.69
2023-05-05T06:01:25.102Z,13.74
2023-05-05T06:03:51.672Z,13.81
2023-05-05T06:06:18.209Z,13.84
2023-05-05T06:08:44.666Z,13.88
2023-05-05T06:11:11.053Z,13.93
2023-05-05T06:13:37.506Z,14.00
2023-05-05T06:16:04.055Z,14.07
2023-05-05T06:18:30.420Z,14.11
2023-05-05T06:20:57.249Z,14.17
2023-05-05T06:23:23.745Z,14.20
2023-05-05T06:25:50.837Z,14.24
2023-05-05T06:28:18.655Z,14.27
2023-05-05T06:30:45.058Z,14.31
2023-05-05T06:33:11.420Z,14.33
2023-05-05T06:35:37.878Z,14.39
2023-05-05T06:38:04.350Z,14.43
2023-05-05T06:40:31.815Z,14.46
2023-05-05T06:42:58.190Z,14.49
2023-05-05T06:45:24.553Z,14.54
2023-05-05T06:47:50.976Z,14.60
2023-05-05T06:50:17.511Z,14.68
2023-05-05T06:52:43.941Z,14.75
2023-05-05T06:55:10.447Z,14.80
2023-05-05T06:57:36.821Z,14.86
2023-05-05T07:00:09.778Z,14.94
2023-05-05T07:02:36.482Z,15.01
2023-05-05T07:05:03.009Z,15.07
2023-05-05T07:07:29.437Z,15.12
2023-05-05T07:09:55.872Z,15.15
2023-05-05T07:12:22.452Z,15.20
2023-05-05T07:14:48.897Z,15.27
2023-05-05T07:17:15.463Z,15.31
2023-05-05T07:19:41.942Z,15.34
2023-05-05T07:22:08.345Z,15.39
2023-05-05T07:24:34.800Z,15.42
2023-05-05T07:27:12.425Z,15.49
2023-05-05T07:29:38.973Z,15.50
2023-05-05T07:32:06.640Z,15.53
2023-05-05T07:34:34.657Z,15.61
2023-05-05T07:37:01.363Z,15.68
2023-05-05T07:39:27.823Z,15.74
2023-05-05T07:42:03.686Z,15.85
2023-05-05T07:44:30.576Z,15.92
2023-05-05T07:46:57.046Z,16.01
2023-05-05T07:50:18.301Z,16.07
2023-05-05T07:53:10.806Z,16.15
2023-05-05T07:55:41.437Z,16.21
2023-05-05T07:58:08.536Z,16.28
2023-05-05T08:00:35.647Z,16.30
2023-05-05T08:03:02.141Z,16.36
2023-05-05T08:05:29.763Z,16.47
2023-05-05T08:07:56.726Z,16.59
2023-05-05T08:10:28.634Z,16.74
2023-05-05T08:12:55.120Z,16.82
2023-05-05T08:15:21.724Z,16.93
2023-05-05T08:17:50.800Z,17.08
2023-05-05T08:20:21.079Z,17.18
2023-05-05T08:22:48.022Z,17.31
2023-05-05T08:25:21.795Z,17.47
2023-05-05T08:27:48.273Z,17.59
2023-05-05T08:30:16.637Z,17.76
2023-05-05T08:32:55.158Z,17.85
2023-05-05T08:35:23.798Z,17.95
2023-05-05T08:37:53.396Z,18.03
2023-05-05T08:40:21.319Z,18.00
2023-05-05T08:42:47.914Z,17.92
2023-05-05T08:45:14.734Z,17.80
2023-05-05T08:47:43.204Z,17.76
2023-05-05T08:50:11.211Z,17.71
2023-05-05T08:52:49.818Z,17.67
2023-05-05T08:55:25.581Z,17.65
2023-05-05T08:57:57.929Z,17.62
2023-05-05T09:00:26.544Z,17.59
2023-05-05T09:02:56.222Z,17.59
2023-05-05T09:05:22.854Z,17.62
2023-05-05T09:07:50.299Z,17.63
2023-05-05T09:10:17.342Z,17.63
2023-05-05T09:12:44.205Z,17.60
2023-05-05T09:15:12.995Z,17.59
2023-05-05T09:17:40.376Z,17.58
2023-05-05T09:20:08.810Z,17.55
2023-05-05T09:22:39.165Z,17.53
2023-05-05T09:25:07.755Z,17.53
2023-05-05T09:27:45.768Z,17.54
2023-05-05T09:30:15.922Z,17.58
2023-05-05T09:32:50.083Z,17.61
2023-05-05T09:35:18.137Z,17.62
2023-05-05T09:37:45.256Z,17.63
2023-05-05T09:40:14.311Z,17.60
2023-05-05T09:42:41.257Z,17.58
2023-05-05T09:45:20.002Z,17.54
2023-05-05T09:47:47.762Z,17.51
2023-05-05T09:50:16.339Z,17.50
2023-05-05T09:52:43.306Z,17.47
2023-05-05T09:55:18.240Z,17.47
2023-05-05T09:57:44.620Z,17.48
2023-05-05T10:00:12.488Z,17.48
2023-05-05T10:02:39.627Z,17.47
2023-05-05T10:05:19.048Z,17.47
2023-05-05T10:07:47.557Z,17.47
2023-05-05T10:10:17.244Z,17.47
2023-05-05T10:12:46.252Z,17.47
2023-05-05T10:15:15.163Z,17.44
2023-05-05T10:18:02.301Z,17.39
2023-05-05T10:20:33.553Z,17.23
2023-05-05T10:23:02.479Z,16.97
2023-05-05T10:25:33.341Z,16.60
2023-05-05T10:28:01.475Z,16.23
2023-05-05T10:30:31.983Z,15.88
2023-05-05T10:33:30.318Z,15.49
2023-05-05T10:35:57.846Z,15.24
2023-05-05T10:38:28.358Z,15.11
2023-05-05T10:40:56.416Z,15.02
2023-05-05T10:43:24.259Z,14.98
2023-05-05T10:45:51.114Z,14.92
2023-05-05T10:48:39.773Z,14.82
2023-05-05T10:51:35.145Z,14.76
2023-05-05T10:54:55.728Z,14.66
2023-05-05T10:57:25.903Z,14.58
2023-05-05T10:59:52.291Z,14.49
2023-05-05T11:02:20.201Z,14.47
2023-05-05T11:05:15.220Z,14.37
2023-05-05T11:07:42.748Z,14.34
2023-05-05T11:10:11.449Z,14.34
2023-05-05T11:13:01.907Z,14.33
2023-05-05T11:15:31.388Z,14.29
2023-05-05T11:17:59.151Z,14.25
2023-05-05T11:20:40.527Z,14.22
2023-05-05T11:23:06.988Z,14.20
2023-05-05T11:25:37.204Z,14.21
2023-05-05T11:28:09.348Z,14.20
2023-05-05T11:30:59.662Z,14.18
2023-05-05T11:33:33.115Z,14.13
2023-05-05T11:36:07.566Z,14.12
2023-05-05T11:38:55.855Z,14.17
2023-05-05T11:41:31.976Z,14.21
2023-05-05T11:44:12.397Z,14.25
2023-05-05T11:47:04.421Z,14.28
2023-05-05T11:49:32.809Z,14.30
2023-05-05T11:52:06.569Z,14.30
2023-05-05T11:54:35.789Z,14.31
2023-05-05T11:57:07.619Z,14.31
2023-05-05T11:59:39.048Z,14.30
2023-05-05T12:02:05.877Z,14.30
2023-05-05T12:04:32.577Z,14.30
2023-05-05T12:06:59.412Z,14.29
2023-05-05T12:09:26.862Z,14.28
2023-05-05T12:11:55.400Z,14.29
2023-05-05T12:14:22.986Z,14.28
2023-05-05T12:17:03.407Z,14.29
2023-05-05T12:19:33.180Z,14.30
2023-05-05T12:22:00.732Z,14.30
2023-05-05T12:24:27.358Z,14.30
2023-05-05T12:26:53.789Z,14.29
2023-05-05T12:29:29.704Z,14.29
2023-05-05T12:31:57.947Z,14.29
2023-05-05T12:34:24.518Z,14.29
2023-05-05T12:36:50.945Z,14.28
2023-05-05T12:39:17.340Z,14.28
2023-05-05T12:41:44.191Z,14.28
2023-05-05T12:44:10.670Z,14.30
2023-05-05T12:46:47.405Z,14.33
2023-05-05T12:49:14.272Z,14.32
2023-05-05T12:51:56.260Z,14.35
2023-05-05T12:54:24.343Z,14.35
2023-05-05T12:56:51.212Z,14.34
2023-05-05T12:59:24.091Z,14.36
2023-05-05T13:02:01.357Z,14.36
2023-05-05T13:04:28.953Z,14.34
2023-05-05T13:07:12.980Z,14.34
2023-05-05T13:09:39.852Z,14.37
2023-05-05T13:12:08.523Z,14.40
2023-05-05T13:14:35.226Z,14.42
2023-05-05T13:17:01.765Z,14.45
2023-05-05T13:19:28.610Z,14.47
2023-05-05T13:21:56.572Z,14.45
2023-05-05T13:24:34.451Z,14.43
2023-05-05T13:27:05.574Z,14.42
2023-05-05T13:29:32.708Z,14.41
2023-05-05T13:31:59.515Z,14.38
2023-05-05T13:34:26.861Z,14.39
2023-05-05T13:36:53.321Z,14.39
2023-05-05T13:39:19.941Z,14.40
2023-05-05T13:41:46.459Z,14.40
2023-05-05T13:44:13.848Z,14.39
2023-05-05T13:46:41.692Z,14.38
2023-05-05T13:49:08.080Z,14.38
2023-05-05T13:51:34.902Z,14.37
2023-05-05T13:54:01.514Z,14.34
2023-05-05T13:56:27.936Z,14.29
2023-05-05T13:58:54.616Z,14.25
2023-05-05T14:01:21.109Z,14.26
2023-05-05T14:03:47.529Z,14.24
2023-05-05T14:06:13.914Z,14.23
2023-05-05T14:08:40.297Z,14.19
2023-05-05T14:11:06.737Z,14.16
2023-05-05T14:13:33.077Z,14.12
2023-05-05T14:15:59.536Z,14.11
2023-05-05T14:18:25.963Z,14.12
2023-05-05T14:20:52.335Z,14.13
2023-05-05T14:23:18.725Z,14.15
2023-05-05T14:25:45.256Z,14.15
2023-05-05T14:28:11.628Z,14.14
2023-05-05T14:30:38.954Z,14.15
2023-05-05T14:33:05.391Z,14.14
2023-05-05T14:35:31.832Z,14.11
2023-05-05T14:37:58.187Z,14.09
2023-05-05T14:40:24.540Z,14.07
2023-05-05T14:42:51.058Z,14.06
2023-05-05T14:45:17.468Z,14.03
2023-05-05T14:47:43.887Z,14.02
2023-05-05T14:50:10.817Z,14.00
2023-05-05T14:52:39.238Z,13.99
2023-05-05T14:55:09.674Z,14.01
2023-05-05T14:57:36.224Z,14.07
2023-05-05T15:00:02.764Z,14.19
2023-05-05T15:02:29.300Z,14.30
2023-05-05T15:04:55.764Z,14.37
2023-05-05T15:07:22.726Z,14.41
2023-05-05T15:09:49.148Z,14.39
2023-05-05T15:12:15.522Z,14.44
2023-05-05T15:14:42.208Z,14.49
2023-05-05T15:17:08.622Z,14.46
2023-05-05T15:19:34.970Z,14.43
2023-05-05T15:22:01.328Z,14.44
2023-05-05T15:24:27.708Z,14.41
2023-05-05T15:26:54.072Z,14.41
2023-05-05T15:29:21.129Z,14.41
2023-05-05T15:31:47.841Z,14.46
2023-05-05T15:34:14.478Z,14.47
2023-05-05T15:36:41.673Z,14.51
2023-05-05T15:39:08.286Z,14.55
2023-05-05T15:41:46.783Z,14.60
2023-05-05T15:44:13.400Z,14.63
2023-05-05T15:46:41.252Z,14.61
2023-05-05T15:49:07.738Z,14.61
2023-05-05T15:51:36.324Z,14.61
2023-05-05T15:54:02.779Z,14.59
2023-05-05T15:56:29.521Z,14.59
2023-05-05T15:58:56.674Z,14.61
2023-05-05T16:01:30.375Z,14.60
2023-05-05T16:04:09.906Z,14.57
2023-05-05T16:06:36.356Z,14.55
2023-05-05T16:09:03.820Z,14.55
2023-05-05T16:11:30.826Z,14.57
2023-05-05T16:14:16.534Z,14.61
2023-05-05T16:16:49.242Z,14.64
2023-05-05T16:19:23.387Z,14.69
2023-05-05T16:21:49.753Z,14.72
2023-05-05T16:24:18.455Z,14.74
2023-05-05T16:26:46.020Z,14.78
2023-05-05T16:29:13.519Z,14.75
2023-05-05T16:31:52.892Z,14.70
2023-05-05T16:34:27.533Z,14.71
2023-05-05T16:36:56.087Z,14.68
2023-05-05T16:39:23.558Z,14.69
2023-05-05T16:42:05.876Z,14.65
2023-05-05T16:44:32.301Z,14.56
2023-05-05T16:47:01.043Z,14.51
2023-05-05T16:49:27.432Z,14.48
2023-05-05T16:51:54.021Z,14.45
2023-05-05T16:54:34.743Z,14.38
2023-05-05T16:57:02.342Z,14.35
2023-05-05T16:59:35.922Z,14.31
2023-05-05T17:02:02.406Z,14.26
2023-05-05T17:04:29.988Z,14.25
2023-05-05T17:07:16.735Z,14.21
2023-05-05T17:09:43.149Z,14.22
2023-05-05T17:12:09.617Z,14.23
2023-05-05T17:14:37.213Z,14.24
2023-05-05T17:17:13.979Z,14.26
2023-05-05T17:19:57.065Z,14.29
2023-05-05T17:22:23.471Z,14.30
2023-05-05T17:24:50.824Z,14.34
2023-05-05T17:27:17.367Z,14.33
2023-05-05T17:29:43.824Z,14.33
2023-05-05T17:32:10.317Z,14.33
2023-05-05T17:34:36.915Z,14.31
2023-05-05T17:37:03.627Z,14.34
2023-05-05T17:39:30.773Z,14.34
2023-05-05T17:41:57.162Z,14.36
2023-05-05T17:44:23.702Z,14.37
2023-05-05T17:46:50.132Z,14.35
2023-05-05T17:49:16.637Z,14.32
2023-05-05T17:51:43.070Z,14.29
2023-05-05T17:54:09.441Z,14.26
2023-05-05T17:56:37.036Z,14.23
2023-05-05T17:59:03.611Z,14.21
2023-05-05T18:01:30.013Z,14.17
2023-05-05T18:03:56.446Z,14.17
2023-05-05T18:06:22.832Z,14.13
2023-05-05T18:08:49.400Z,14.11
2023-05-05T18:11:15.845Z,14.06
2023-05-05T18:13:43.145Z,14.03
2023-05-05T18:16:09.608Z,14.01
2023-05-05T18:18:36.214Z,13.98
2023-05-05T18:21:02.661Z,13.99
2023-05-05T18:23:29.039Z,13.95
2023-05-05T18:25:55.522Z,13.95
2023-05-05T18:28:21.997Z,13.91
2023-05-05T18:30:48.602Z,13.88
2023-05-05T18:33:14.982Z,13.84
2023-05-05T18:35:41.360Z,13.79
2023-05-05T18:38:20.172Z,13.77
2023-05-05T18:40:55.964Z,13.75
2023-05-05T18:43:22.527Z,13.69
2023-05-05T18:45:48.974Z,13.67
2023-05-05T18:48:15.385Z,13.62
2023-05-05T18:50:41.868Z,13.60
2023-05-05T18:53:10.714Z,13.55
2023-05-05T18:55:37.282Z,13.50
2023-05-05T18:58:03.687Z,13.45
2023-05-05T19:00:30.168Z,13.42
2023-05-05T19:02:56.812Z,13.38
2023-05-05T19:05:23.409Z,13.32
2023-05-05T19:07:49.795Z,13.29
2023-05-05T19:10:16.386Z,13.26
2023-05-05T19:12:42.901Z,13.23
2023-05-05T19:15:09.907Z,13.19
2023-05-05T19:17:36.810Z,13.15
2023-05-05T19:20:03.379Z,13.10
2023-05-05T19:22:29.758Z,13.11
2023-05-05T19:24:56.157Z,13.06
2023-05-05T19:27:22.563Z,13.04
2023-05-05T19:29:52.671Z,12.99
2023-05-05T19:32:21.120Z,12.94
2023-05-05T19:34:48.019Z,12.91
2023-05-05T19:37:14.515Z,12.85
2023-05-05T19:39:43.102Z,12.83
2023-05-05T19:42:09.708Z,12.77
2023-05-05T19:44:36.127Z,12.75
2023-05-05T19:47:02.611Z,12.74
2023-05-05T19:49:29.044Z,12.71
2023-05-05T19:51:56.989Z,12.67
2023-05-05T19:54:24.684Z,12.65
2023-05-05T19:56:51.875Z,12.61
2023-05-05T19:59:18.498Z,12.60
2023-05-05T20:01:45.317Z,12.58
2023-05-05T20:04:11.934Z,12.54
2023-05-05T20:06:38.560Z,12.50
2023-05-05T20:09:05.345Z,12.50
2023-05-05T20:11:32.007Z,12.48
2023-05-05T20:13:58.684Z,12.48
2023-05-05T20:16:25.644Z,12.47
2023-05-05T20:18:52.291Z,12.46
2023-05-05T20:21:18.993Z,12.42
2023-05-05T20:23:46.102Z,12.39
2023-05-05T20:26:13.177Z,12.39
2023-05-05T20:28:45.273Z,12.37
2023-05-05T20:31:14.931Z,12.36
2023-05-05T20:33:41.394Z,12.34
2023-05-05T20:36:07.945Z,12.32
2023-05-05T20:38:34.577Z,12.29
2023-05-05T20:41:01.326Z,12.28
2023-05-05T20:43:27.879Z,12.22
2023-05-05T20:45:54.304Z,12.19
2023-05-05T20:48:20.979Z,12.19
2023-05-05T20:50:47.468Z,12.16
2023-05-05T20:53:14.852Z,12.15
2023-05-05T20:55:41.529Z,12.12
2023-05-05T20:58:07.905Z,12.08
2023-05-05T21:00:34.544Z,12.05
2023-05-05T21:03:02.737Z,12.04
2023-05-05T21:05:29.761Z,12.02
2023-05-05T21:07:57.326Z,12.01
2023-05-05T21:10:25.016Z,12.02
2023-05-05T21:12:51.524Z,12.01
2023-05-05T21:15:18.026Z,11.97
2023-05-05T21:17:44.589Z,11.95
2023-05-05T21:20:11.877Z,11.91
2023-05-05T21:22:38.658Z,11.89
2023-05-05T21:25:16.805Z,11.85
2023-05-05T21:27:43.405Z,11.84
2023-05-05T21:30:11.454Z,11.81
2023-05-05T21:32:38.786Z,11.79
2023-05-05T21:35:06.749Z,11.78
2023-05-05T21:37:33.478Z,11.75
2023-05-05T21:39:59.893Z,11.75
2023-05-05T21:42:26.915Z,11.73
2023-05-05T21:44:53.304Z,11.71
2023-05-05T21:47:19.751Z,11.69
2023-05-05T21:49:46.166Z,11.66
2023-05-05T21:52:12.681Z,11.62
2023-05-05T21:54:39.096Z,11.59
2023-05-05T21:57:06.355Z,11.55
2023-05-05T21:59:32.768Z,11.57
2023-05-05T22:01:59.256Z,11.54
2023-05-05T22:04:25.731Z,11.55
2023-05-05T22:06:52.226Z,11.54
2023-05-05T22:09:18.778Z,11.50
2023-05-05T22:11:45.162Z,11.49
2023-05-05T22:14:11.542Z,11.48
2023-05-05T22:16:38.066Z,11.45
2023-05-05T22:19:04.585Z,11.47
2023-05-05T22:21:31.550Z,11.43
2023-05-05T22:23:57.975Z,11.43
2023-05-05T22:26:24.366Z,11.42
2023-05-05T22:28:51.053Z,11.43
2023-05-05T22:31:17.480Z,11.43
2023-05-05T22:33:44.277Z,11.42
2023-05-05T22:36:11.520Z,11.44
2023-05-05T22:38:38.031Z,11.42
2023-05-05T22:41:06.444Z,11.41
2023-05-05T22:43:32.869Z,11.41
2023-05-05T22:45:59.279Z,11.42
2023-05-05T22:48:25.724Z,11.43
2023-05-05T22:50:52.086Z,11.43
2023-05-05T22:53:18.460Z,11.44
2023-05-05T22:55:44.954Z,11.44
2023-05-05T22:58:11.554Z,11.47
2023-05-05T23:00:37.918Z,11.49
2023-05-05T23:03:04.591Z,11.52
2023-05-05T23:05:31.090Z,11.51
2023-05-05T23:07:59.924Z,11.54
2023-05-05T23:10:26.455Z,11.54
2023-05-05T23:12:53.843Z,11.56
2023-05-05T23:15:21.630Z,11.58
2023-05-05T23:17:48.177Z,11.61
2023-05-05T23:20:15.195Z,11.61
2023-05-05T23:22:41.663Z,11.62
2023-05-05T23:25:08.651Z,11.62
2023-05-05T23:27:35.222Z,11.62
2023-05-05T23:30:01.621Z,11.64
2023-05-05T23:32:28.053Z,11.61
2023-05-05T23:34:54.486Z,11.59
2023-05-05T23:37:20.919Z,11.57
2023-05-05T23:39:47.346Z,11.52
2023-05-05T23:42:13.728Z,11.50
2023-05-05T23:44:40.086Z,11.48
2023-05-05T23:47:06.455Z,11.47
2023-05-05T23:49:32.935Z,11.46
2023-05-05T23:51:59.309Z,11.49
2023-05-05T23:54:26.128Z,11.49
2023-05-05T23:56:52.491Z,11.51
2023-05-05T23:59:19.087Z,11.51
